createdAt,value
2018-09-11T00:00:04.222Z,12.50
2018-09-11T00:01:04.204Z,10.40
2018-09-11T00:02:04.185Z,10.10
2018-09-11T00:03:04.167Z,9.80
2018-09-11T00:04:04.150Z,10.80
2018-09-11T00:05:04.130Z,10.80
2018-09-11T00:06:04.111Z,12.10
2018-09-11T00:07:04.092Z,11.10
2018-09-11T00:08:04.073Z,11.30
2018-09-11T00:09:04.054Z,11.80
2018-09-11T00:10:04.036Z,15.80
2018-09-11T00:11:04.017Z,11.40
2018-09-11T00:12:04.001Z,13.60
2018-09-11T00:13:03.982Z,13.30
2018-09-11T00:14:03.961Z,12.20
2018-09-11T00:15:03.943Z,13.80
2018-09-11T00:16:03.928Z,11.30
2018-09-11T00:17:03.905Z,12.90
2018-09-11T00:18:03.886Z,11.60
2018-09-11T00:19:03.867Z,11.50
2018-09-11T00:20:03.848Z,12.30
2018-09-11T00:21:03.829Z,12.00
2018-09-11T00:22:03.814Z,11.70
2018-09-11T00:23:03.795Z,12.90
2018-09-11T00:24:03.772Z,13.00
2018-09-11T00:25:04.506Z,11.70
2018-09-11T00:26:03.736Z,10.50
2018-09-11T00:27:03.717Z,11.80
2018-09-11T00:28:03.698Z,13.80
2018-09-11T00:29:03.680Z,10.00
2018-09-11T00:30:03.660Z,10.70
2018-09-11T00:31:03.641Z,11.20
2018-09-11T00:32:03.622Z,10.90
2018-09-11T00:33:03.606Z,11.40
2018-09-11T00:34:03.586Z,13.90
2018-09-11T00:35:03.567Z,10.10
2018-09-11T00:36:03.547Z,11.10
2018-09-11T00:37:03.527Z,11.00
2018-09-11T00:38:03.509Z,10.70
2018-09-11T00:39:03.489Z,9.70
2018-09-11T00:40:03.471Z,9.50
2018-09-11T00:41:03.452Z,10.60
2018-09-11T00:42:03.433Z,11.10
2018-09-11T00:43:03.414Z,11.90
2018-09-11T00:44:03.394Z,11.40
2018-09-11T00:45:03.376Z,11.20
2018-09-11T00:46:03.356Z,11.40
2018-09-11T00:47:03.340Z,10.60
2018-09-11T00:48:03.322Z,9.90
2018-09-11T00:49:03.304Z,11.20
2018-09-11T00:50:03.280Z,10.50
2018-09-11T00:51:04.012Z,12.60
2018-09-11T00:52:03.241Z,10.30
2018-09-11T00:53:03.222Z,9.50
2018-09-11T00:54:03.203Z,11.50
2018-09-11T00:55:03.194Z,10.00
2018-09-11T00:56:03.167Z,12.20
2018-09-11T00:57:03.146Z,12.10
2018-09-11T00:58:03.125Z,11.30
2018-09-11T00:59:03.109Z,10.50
2018-09-11T01:00:03.094Z,10.40
2018-09-11T01:01:03.068Z,12.00
2018-09-11T01:02:03.051Z,10.90
2018-09-11T01:03:03.031Z,11.10
2018-09-11T01:04:03.010Z,10.20
2018-09-11T01:05:02.991Z,11.80
2018-09-11T01:06:02.972Z,9.90
2018-09-11T01:07:02.952Z,12.30
2018-09-11T01:08:02.932Z,9.80
2018-09-11T01:09:02.913Z,12.30
2018-09-11T01:10:02.915Z,10.60
2018-09-11T01:11:02.874Z,10.10
2018-09-11T01:12:02.854Z,14.30
2018-09-11T01:13:02.835Z,9.80
2018-09-11T01:14:02.816Z,9.50
2018-09-11T01:15:02.799Z,9.00
2018-09-11T01:16:02.777Z,10.40
2018-09-11T01:17:02.757Z,9.30
2018-09-11T01:18:03.491Z,9.10
2018-09-11T01:19:02.720Z,10.30
2018-09-11T01:20:02.699Z,9.90
2018-09-11T01:21:02.680Z,12.60
2018-09-11T01:22:02.661Z,10.50
2018-09-11T01:23:02.642Z,9.90
2018-09-11T01:24:02.621Z,11.40
2018-09-11T01:25:02.603Z,11.10
2018-09-11T01:26:02.584Z,12.40
2018-09-11T01:27:02.564Z,10.20
2018-09-11T01:28:02.548Z,13.30
2018-09-11T01:29:02.526Z,11.40
2018-09-11T01:30:02.506Z,9.70
2018-09-11T01:31:02.487Z,10.60
2018-09-11T01:32:02.470Z,12.30
2018-09-11T01:33:02.448Z,10.50
2018-09-11T01:34:02.428Z,10.60
2018-09-11T01:35:02.410Z,12.40
2018-09-11T01:36:02.405Z,10.50
2018-09-11T01:37:02.370Z,10.90
2018-09-11T01:38:02.351Z,10.70
2018-09-11T01:39:03.082Z,10.80
2018-09-11T01:40:02.311Z,11.40
2018-09-11T01:41:02.293Z,11.70
2018-09-11T01:42:02.272Z,10.70
2018-09-11T01:43:02.260Z,10.80
2018-09-11T01:44:02.234Z,11.10
2018-09-11T01:45:02.214Z,10.60
2018-09-11T01:46:02.197Z,11.00
2018-09-11T01:47:02.175Z,15.30
2018-09-11T01:48:02.155Z,11.00
2018-09-11T01:49:02.136Z,10.90
2018-09-11T01:50:02.118Z,11.50
2018-09-11T01:51:02.098Z,11.20
2018-09-11T01:52:02.078Z,10.90
2018-09-11T01:53:02.062Z,13.60
2018-09-11T01:54:02.039Z,12.40
2018-09-11T01:55:02.771Z,12.20
2018-09-11T01:56:01.998Z,12.50
2018-09-11T01:57:01.979Z,10.30
2018-09-11T01:58:01.964Z,13.50
2018-09-11T01:59:01.940Z,11.00
2018-09-11T02:00:01.920Z,10.50
2018-09-11T02:01:01.900Z,14.50
2018-09-11T02:02:01.882Z,11.50
2018-09-11T02:03:01.862Z,10.60
2018-09-11T02:04:01.842Z,11.50
2018-09-11T02:05:01.823Z,12.60
2018-09-11T02:06:01.804Z,13.40
2018-09-11T02:07:01.784Z,11.40
2018-09-11T02:08:01.763Z,12.10
2018-09-11T02:09:01.744Z,11.60
2018-09-11T02:10:01.729Z,10.90
2018-09-11T02:11:01.710Z,10.10
2018-09-11T02:12:01.685Z,11.30
2018-09-11T02:13:01.666Z,12.50
2018-09-11T02:14:01.647Z,13.40
2018-09-11T02:15:01.656Z,13.00
2018-09-11T02:16:01.609Z,11.00
2018-09-11T02:17:01.588Z,11.90
2018-09-11T02:18:01.567Z,12.80
2018-09-11T02:19:01.548Z,15.20
2018-09-11T02:20:01.527Z,11.20
2018-09-11T02:21:01.509Z,11.50
2018-09-11T02:22:01.489Z,13.40
2018-09-11T02:23:01.472Z,11.30
2018-09-11T02:24:01.449Z,13.30
2018-09-11T02:25:01.429Z,11.90
2018-09-11T02:26:01.410Z,14.60
2018-09-11T02:27:01.391Z,15.50
2018-09-11T02:28:01.370Z,13.90
2018-09-11T02:29:01.351Z,11.90
2018-09-11T02:30:01.337Z,11.60
2018-09-11T02:31:01.329Z,12.50
2018-09-11T02:32:01.295Z,13.90
2018-09-11T02:33:01.275Z,13.00
2018-09-11T02:34:01.253Z,13.90
2018-09-11T02:35:01.232Z,13.90
2018-09-11T02:36:01.962Z,15.60
2018-09-11T02:37:01.199Z,11.80
2018-09-11T02:38:01.172Z,13.30
2018-09-11T02:39:01.153Z,13.80
2018-09-11T02:40:01.132Z,11.30
2018-09-11T02:41:01.112Z,14.30
2018-09-11T02:42:01.092Z,11.50
2018-09-11T02:43:01.072Z,12.60
2018-09-11T02:44:01.051Z,13.60
2018-09-11T02:45:01.039Z,14.50
2018-09-11T02:46:01.012Z,11.20
2018-09-11T02:47:00.992Z,11.70
2018-09-11T02:48:00.973Z,11.80
2018-09-11T02:49:00.953Z,11.20
2018-09-11T02:50:00.933Z,12.40
2018-09-11T02:51:00.913Z,11.60
2018-09-11T02:52:00.892Z,11.50
2018-09-11T02:53:00.873Z,12.00
2018-09-11T02:54:00.856Z,14.00
2018-09-11T02:55:00.834Z,12.20
2018-09-11T02:56:00.823Z,11.80
2018-09-11T02:57:00.792Z,13.60
2018-09-11T02:58:00.773Z,14.10
2018-09-11T02:59:00.753Z,13.00
2018-09-11T03:00:00.732Z,15.80
2018-09-11T03:01:00.712Z,16.20
2018-09-11T03:02:00.694Z,13.20
2018-09-11T03:03:00.673Z,14.20
2018-09-11T03:04:00.653Z,13.70
2018-09-11T03:05:00.635Z,13.70
2018-09-11T03:06:00.612Z,16.00
2018-09-11T03:07:02.094Z,12.80
2018-09-11T03:08:00.573Z,12.30
2018-09-11T03:09:00.552Z,14.00
2018-09-11T03:10:00.532Z,14.50
2018-09-11T03:11:00.512Z,11.40
2018-09-11T03:12:00.493Z,11.70
2018-09-11T03:13:00.472Z,11.60
2018-09-11T03:14:00.452Z,15.00
2018-09-11T03:15:00.433Z,13.20
2018-09-11T03:16:00.416Z,12.60
2018-09-11T03:17:00.393Z,12.20
2018-09-11T03:18:00.372Z,15.10
2018-09-11T03:19:00.446Z,12.90
2018-09-11T03:20:00.332Z,12.10
2018-09-11T03:21:00.312Z,15.00
2018-09-11T03:22:00.293Z,13.80
2018-09-11T03:23:00.277Z,12.40
2018-09-11T03:24:00.252Z,13.90
2018-09-11T03:25:00.232Z,14.20
2018-09-11T03:26:00.211Z,13.10
2018-09-11T03:27:00.191Z,12.50
2018-09-11T03:28:00.182Z,13.20
2018-09-11T03:29:00.151Z,13.00
2018-09-11T03:30:00.134Z,13.40
2018-09-11T03:31:00.126Z,12.10
2018-09-11T03:32:00.091Z,13.60
2018-09-11T03:33:00.075Z,12.10
2018-09-11T03:34:00.051Z,13.40
2018-09-11T03:35:00.032Z,13.10
2018-09-11T03:36:00.011Z,12.20
2018-09-11T03:36:59.991Z,13.50
2018-09-11T03:37:59.982Z,13.90
2018-09-11T03:38:59.951Z,13.70
2018-09-11T03:40:00.681Z,12.20
2018-09-11T03:40:59.910Z,13.10
2018-09-11T03:41:59.891Z,12.90
2018-09-11T03:42:59.873Z,15.50
2018-09-11T03:43:59.864Z,13.50
2018-09-11T03:44:59.829Z,12.70
2018-09-11T03:45:59.813Z,13.80
2018-09-11T03:46:59.790Z,13.50
2018-09-11T03:47:59.769Z,14.00
2018-09-11T03:48:59.752Z,13.00
2018-09-11T03:49:59.729Z,13.30
2018-09-11T03:50:59.712Z,12.50
2018-09-11T03:51:59.702Z,14.00
2018-09-11T03:52:59.672Z,13.70
2018-09-11T03:53:59.650Z,13.70
2018-09-11T03:54:59.628Z,12.00
2018-09-11T03:55:59.610Z,12.50
2018-09-11T03:56:59.588Z,13.10
2018-09-11T03:57:59.575Z,12.10
2018-09-11T03:58:59.549Z,14.10
2018-09-11T03:59:59.528Z,12.60
2018-09-11T04:00:59.508Z,12.40
2018-09-11T04:01:59.489Z,15.50
2018-09-11T04:02:59.469Z,12.20
2018-09-11T04:03:59.449Z,11.30
2018-09-11T04:04:59.429Z,11.80
2018-09-11T04:06:00.158Z,10.90
2018-09-11T04:06:59.389Z,12.00
2018-09-11T04:07:59.367Z,11.40
2018-09-11T04:08:59.347Z,14.80
2018-09-11T04:09:59.329Z,11.60
2018-09-11T04:10:59.306Z,12.80
2018-09-11T04:11:59.290Z,11.80
2018-09-11T04:12:59.267Z,11.90
2018-09-11T04:13:59.247Z,12.40
2018-09-11T04:14:59.226Z,12.20
2018-09-11T04:15:59.205Z,13.70
2018-09-11T04:17:00.688Z,12.20
2018-09-11T04:17:59.166Z,11.50
2018-09-11T04:18:59.146Z,13.50
2018-09-11T04:19:59.125Z,13.10
2018-09-11T04:20:59.104Z,11.70
2018-09-11T04:21:59.084Z,14.90
2018-09-11T04:22:59.064Z,12.80
2018-09-11T04:23:59.044Z,13.40
2018-09-11T04:24:59.022Z,13.30
2018-09-11T04:25:59.004Z,13.40
2018-09-11T04:26:58.983Z,12.30
2018-09-11T04:27:58.962Z,11.90
2018-09-11T04:28:58.941Z,13.20
2018-09-11T04:29:58.922Z,19.00
2018-09-11T04:30:58.902Z,12.20
2018-09-11T04:31:58.881Z,14.20
2018-09-11T04:32:58.863Z,11.90
2018-09-11T04:33:58.842Z,12.90
2018-09-11T04:34:58.821Z,16.70
2018-09-11T04:35:58.801Z,15.30
2018-09-11T04:36:58.783Z,14.30
2018-09-11T04:37:58.760Z,12.60
2018-09-11T04:38:58.740Z,14.60
2018-09-11T04:39:58.721Z,14.10
2018-09-11T04:40:58.699Z,16.40
2018-09-11T04:41:58.678Z,12.90
2018-09-11T04:42:58.703Z,12.60
2018-09-11T04:43:58.641Z,12.40
2018-09-11T04:44:58.618Z,11.90
2018-09-11T04:45:58.597Z,12.10
2018-09-11T04:46:58.578Z,13.40
2018-09-11T04:47:58.556Z,11.80
2018-09-11T04:48:58.539Z,11.10
2018-09-11T04:49:58.516Z,12.50
2018-09-11T04:50:58.496Z,12.70
2018-09-11T04:51:58.475Z,13.00
2018-09-11T04:52:58.455Z,14.60
2018-09-11T04:53:58.437Z,12.50
2018-09-11T04:54:58.415Z,12.80
2018-09-11T04:55:58.475Z,12.90
2018-09-11T04:56:58.377Z,12.90
2018-09-11T04:57:58.355Z,13.30
2018-09-11T04:58:58.333Z,12.10
2018-09-11T04:59:58.313Z,13.50
2018-09-11T05:00:58.293Z,12.60
2018-09-11T05:01:58.283Z,12.10
2018-09-11T05:02:58.252Z,12.60
2018-09-11T05:03:58.232Z,12.70
2018-09-11T05:04:58.963Z,11.90
2018-09-11T05:05:58.192Z,13.30
2018-09-11T05:06:58.175Z,13.10
2018-09-11T05:07:58.152Z,15.10
2018-09-11T05:08:58.132Z,15.30
2018-09-11T05:09:58.110Z,14.30
2018-09-11T05:10:58.090Z,14.20
2018-09-11T05:11:58.070Z,13.80
2018-09-11T05:12:58.050Z,14.30
2018-09-11T05:13:58.030Z,13.70
2018-09-11T05:14:58.010Z,16.90
2018-09-11T05:15:57.991Z,13.50
2018-09-11T05:16:57.968Z,13.90
2018-09-11T05:17:57.950Z,15.20
2018-09-11T05:18:57.976Z,14.50
2018-09-11T05:19:57.910Z,12.50
2018-09-11T05:20:57.888Z,12.50
2018-09-11T05:21:57.868Z,12.50
2018-09-11T05:22:57.848Z,15.70
2018-09-11T05:23:57.826Z,13.50
2018-09-11T05:24:57.807Z,13.00
2018-09-11T05:25:57.789Z,13.90
2018-09-11T05:26:57.773Z,11.60
2018-09-11T05:27:57.755Z,12.30
2018-09-11T05:28:57.727Z,13.70
2018-09-11T05:29:57.707Z,12.80
2018-09-11T05:30:57.687Z,14.50
2018-09-11T05:31:57.666Z,13.20
2018-09-11T05:32:57.651Z,12.00
2018-09-11T05:33:57.625Z,12.70
2018-09-11T05:34:57.606Z,14.40
2018-09-11T05:35:57.585Z,13.60
2018-09-11T05:36:58.313Z,12.20
2018-09-11T05:37:57.544Z,15.50
2018-09-11T05:38:57.540Z,13.30
2018-09-11T05:39:57.503Z,13.40
2018-09-11T05:40:57.483Z,13.70
2018-09-11T05:41:57.464Z,12.20
2018-09-11T05:42:57.443Z,13.70
2018-09-11T05:43:57.424Z,12.90
2018-09-11T05:44:57.404Z,15.00
2018-09-11T05:45:57.382Z,12.00
2018-09-11T05:46:57.366Z,13.20
2018-09-11T05:47:57.340Z,13.40
2018-09-11T05:48:57.321Z,12.70
2018-09-11T05:49:57.301Z,13.30
2018-09-11T05:50:57.281Z,13.20
2018-09-11T05:51:57.262Z,13.90
2018-09-11T05:52:57.241Z,12.80
2018-09-11T05:53:57.220Z,12.90
2018-09-11T05:54:57.201Z,12.50
2018-09-11T05:55:57.180Z,13.10
2018-09-11T05:56:57.160Z,12.60
2018-09-11T05:57:57.141Z,14.40
2018-09-11T05:58:57.120Z,13.30
2018-09-11T05:59:57.102Z,14.90
2018-09-11T06:00:57.081Z,15.70
2018-09-11T06:01:57.065Z,13.00
2018-09-11T06:02:57.041Z,17.40
2018-09-11T06:03:57.024Z,15.50
2018-09-11T06:04:57.000Z,13.00
2018-09-11T06:05:56.982Z,13.60
2018-09-11T06:06:56.961Z,15.70
2018-09-11T06:07:57.692Z,16.10
2018-09-11T06:08:56.921Z,15.80
2018-09-11T06:09:56.902Z,14.50
2018-09-11T06:10:56.883Z,13.00
2018-09-11T06:11:56.863Z,14.80
2018-09-11T06:12:56.847Z,16.10
2018-09-11T06:13:56.822Z,15.80
2018-09-11T06:14:56.803Z,13.70
2018-09-11T06:15:56.782Z,14.80
2018-09-11T06:16:56.762Z,13.20
2018-09-11T06:17:56.743Z,14.10
2018-09-11T06:18:56.724Z,14.20
2018-09-11T06:19:56.704Z,15.70
2018-09-11T06:20:56.683Z,16.70
2018-09-11T06:21:56.663Z,14.30
2018-09-11T06:22:56.647Z,14.50
2018-09-11T06:23:56.625Z,15.50
2018-09-11T06:24:56.608Z,14.40
2018-09-11T06:25:56.641Z,14.00
2018-09-11T06:26:56.566Z,17.00
2018-09-11T06:27:56.696Z,19.30
2018-09-11T06:28:56.529Z,15.00
2018-09-11T06:29:56.508Z,14.60
2018-09-11T06:30:56.496Z,14.20
2018-09-11T06:31:56.471Z,17.80
2018-09-11T06:32:56.448Z,13.80
2018-09-11T06:34:00.182Z,14.10
2018-09-11T06:34:56.410Z,15.30
2018-09-11T06:35:56.398Z,15.90
2018-09-11T06:36:56.428Z,14.00
2018-09-11T06:37:56.352Z,15.50
2018-09-11T06:38:56.332Z,15.90
2018-09-11T06:39:57.063Z,15.30
2018-09-11T06:40:56.293Z,16.80
2018-09-11T06:41:56.274Z,14.80
2018-09-11T06:42:56.255Z,15.60
2018-09-11T06:43:56.235Z,17.90
2018-09-11T06:44:56.216Z,16.00
2018-09-11T06:45:56.197Z,17.70
2018-09-11T06:46:56.191Z,17.20
2018-09-11T06:47:56.159Z,15.50
2018-09-11T06:48:56.140Z,16.60
2018-09-11T06:49:56.121Z,16.40
2018-09-11T06:50:56.102Z,18.80
2018-09-11T06:51:56.082Z,17.90
2018-09-11T06:52:56.063Z,17.70
2018-09-11T06:53:56.044Z,14.30
2018-09-11T06:54:56.026Z,16.20
2018-09-11T06:55:56.007Z,16.10
2018-09-11T06:56:55.988Z,16.40
2018-09-11T06:57:55.968Z,16.80
2018-09-11T06:58:55.995Z,15.30
2018-09-11T06:59:55.931Z,16.60
2018-09-11T07:00:55.911Z,17.00
2018-09-11T07:01:55.970Z,15.90
2018-09-11T07:02:55.873Z,15.70
2018-09-11T07:03:55.854Z,15.60
2018-09-11T07:04:55.835Z,17.50
2018-09-11T07:05:55.817Z,21.00
2018-09-11T07:06:55.797Z,19.20
2018-09-11T07:07:55.783Z,15.50
2018-09-11T07:08:55.760Z,16.00
2018-09-11T07:09:55.741Z,14.70
2018-09-11T07:10:55.722Z,20.30
2018-09-11T07:11:58.706Z,16.60
2018-09-11T07:12:55.684Z,15.20
2018-09-11T07:13:55.666Z,17.40
2018-09-11T07:14:55.648Z,14.60
2018-09-11T07:15:55.631Z,17.00
2018-09-11T07:16:55.610Z,15.40
2018-09-11T07:17:55.592Z,15.60
2018-09-11T07:18:55.573Z,19.30
2018-09-11T07:19:55.746Z,15.70
2018-09-11T07:20:55.535Z,18.80
2018-09-11T07:21:55.517Z,20.90
2018-09-11T07:22:55.500Z,16.50
2018-09-11T07:23:55.480Z,17.30
2018-09-11T07:24:55.461Z,16.70
2018-09-11T07:25:55.463Z,16.10
2018-09-11T07:26:55.425Z,20.00
2018-09-11T07:27:55.407Z,17.50
2018-09-11T07:28:55.391Z,16.60
2018-09-11T07:29:55.374Z,18.20
2018-09-11T07:30:55.352Z,19.20
2018-09-11T07:31:55.332Z,17.00
2018-09-11T07:32:55.314Z,15.80
2018-09-11T07:33:56.047Z,18.30
2018-09-11T07:34:55.279Z,19.20
2018-09-11T07:35:55.261Z,17.30
2018-09-11T07:36:55.241Z,17.50
2018-09-11T07:37:55.321Z,17.40
2018-09-11T07:38:55.205Z,20.70
2018-09-11T07:39:55.188Z,21.40
2018-09-11T07:40:55.169Z,21.20
2018-09-11T07:41:55.151Z,16.00
2018-09-11T07:42:55.133Z,19.30
2018-09-11T07:43:57.466Z,14.60
2018-09-11T07:44:55.095Z,18.50
2018-09-11T07:45:55.077Z,17.00
2018-09-11T07:46:55.061Z,16.20
2018-09-11T07:47:55.041Z,17.30
2018-09-11T07:48:55.025Z,20.10
2018-09-11T07:49:56.506Z,18.30
2018-09-11T07:50:54.988Z,17.50
2018-09-11T07:51:54.971Z,16.20
2018-09-11T07:52:54.971Z,18.70
2018-09-11T07:53:54.935Z,17.20
2018-09-11T07:54:54.917Z,16.30
2018-09-11T07:55:54.997Z,19.60
2018-09-11T07:56:54.878Z,17.70
2018-09-11T07:57:54.917Z,16.80
2018-09-11T07:58:54.843Z,17.20
2018-09-11T07:59:54.826Z,17.70
2018-09-11T08:00:54.807Z,18.50
2018-09-11T08:01:54.794Z,15.20
2018-09-11T08:02:54.785Z,15.90
2018-09-11T08:03:54.753Z,16.70
2018-09-11T08:04:54.737Z,16.90
2018-09-11T08:05:54.719Z,18.00
2018-09-11T08:06:54.702Z,17.40
2018-09-11T08:07:54.683Z,17.20
2018-09-11T08:08:54.665Z,17.10
2018-09-11T08:09:54.648Z,17.10
2018-09-11T08:10:54.630Z,11.10
2018-09-11T08:11:55.427Z,11.90
2018-09-11T08:12:54.599Z,14.80
2018-09-11T08:13:54.576Z,13.10
2018-09-11T08:14:54.559Z,13.20
2018-09-11T08:15:54.541Z,15.40
2018-09-11T08:16:54.525Z,13.10
2018-09-11T08:17:54.541Z,13.30
2018-09-11T08:18:54.494Z,13.80
2018-09-11T08:19:54.539Z,14.70
2018-09-11T08:20:54.458Z,15.70
2018-09-11T08:21:54.438Z,13.70
2018-09-11T08:22:54.424Z,12.10
2018-09-11T08:23:54.443Z,13.90
2018-09-11T08:24:54.384Z,13.60
2018-09-11T08:25:54.367Z,12.60
2018-09-11T08:26:54.350Z,10.80
2018-09-11T08:27:54.333Z,11.60
2018-09-11T08:28:54.315Z,11.50
2018-09-11T08:29:54.304Z,11.60
2018-09-11T08:30:54.286Z,10.70
2018-09-11T08:31:54.263Z,9.90
2018-09-11T08:32:54.245Z,10.00
2018-09-11T08:33:54.228Z,8.50
2018-09-11T08:34:54.212Z,8.50
2018-09-11T08:35:54.193Z,10.30
2018-09-11T08:36:54.180Z,10.30
2018-09-11T08:37:54.159Z,10.10
2018-09-11T08:38:54.893Z,11.00
2018-09-11T08:39:54.126Z,11.30
2018-09-11T08:40:54.133Z,13.80
2018-09-11T08:41:54.091Z,12.60
2018-09-11T08:42:54.073Z,14.70
2018-09-11T08:43:54.057Z,9.80
2018-09-11T08:44:54.038Z,12.30
2018-09-11T08:45:54.023Z,12.10
2018-09-11T08:46:54.006Z,15.10
2018-09-11T08:47:53.988Z,14.20
2018-09-11T08:48:53.971Z,14.30
2018-09-11T08:49:56.958Z,9.80
2018-09-11T08:50:53.937Z,10.10
2018-09-11T08:51:53.920Z,10.40
2018-09-11T08:52:53.902Z,11.80
2018-09-11T08:53:53.885Z,12.20
2018-09-11T08:54:53.870Z,11.20
2018-09-11T08:55:54.606Z,11.10
2018-09-11T08:56:53.834Z,11.90
2018-09-11T08:57:53.818Z,16.10
2018-09-11T08:58:53.802Z,12.30
2018-09-11T08:59:53.784Z,13.30
2018-09-11T09:00:53.768Z,13.60
2018-09-11T09:01:53.751Z,11.00
2018-09-11T09:02:53.734Z,12.70
2018-09-11T09:03:53.718Z,10.20
2018-09-11T09:04:53.701Z,12.20
2018-09-11T09:05:53.685Z,10.40
2018-09-11T09:06:53.720Z,11.50
2018-09-11T09:07:53.650Z,13.70
2018-09-11T09:08:53.634Z,13.70
2018-09-11T09:09:53.622Z,14.80
2018-09-11T09:10:53.601Z,10.90
2018-09-11T09:11:54.334Z,10.60
2018-09-11T09:12:53.571Z,13.90
2018-09-11T09:13:53.551Z,13.50
2018-09-11T09:14:53.537Z,12.30
2018-09-11T09:15:53.519Z,13.10
2018-09-11T09:16:53.501Z,14.00
2018-09-11T09:17:53.485Z,13.80
2018-09-11T09:18:53.472Z,13.40
2018-09-11T09:19:53.453Z,11.20
2018-09-11T09:20:53.514Z,16.00
2018-09-11T09:21:53.432Z,11.00
2018-09-11T09:22:53.404Z,9.80
2018-09-11T09:23:53.385Z,11.00
2018-09-11T09:24:53.370Z,11.40
2018-09-11T09:25:53.353Z,10.40
2018-09-11T09:26:53.340Z,11.80
2018-09-11T09:27:53.320Z,13.10
2018-09-11T09:28:53.304Z,13.80
2018-09-11T09:29:53.289Z,11.10
2018-09-11T09:30:53.273Z,9.50
2018-09-11T09:31:53.255Z,12.40
2018-09-11T09:32:53.239Z,11.30
2018-09-11T09:33:53.225Z,11.70
2018-09-11T09:34:53.206Z,12.80
2018-09-11T09:35:53.189Z,11.50
2018-09-11T09:36:53.203Z,15.10
2018-09-11T09:37:53.158Z,13.70
2018-09-11T09:38:53.143Z,12.40
2018-09-11T09:39:53.126Z,8.50
2018-09-11T09:40:53.110Z,12.80
2018-09-11T09:41:53.097Z,10.70
2018-09-11T09:42:53.078Z,12.60
2018-09-11T09:43:53.869Z,9.30
2018-09-11T09:44:53.043Z,9.10
2018-09-11T09:45:53.029Z,9.30
2018-09-11T09:46:53.014Z,8.80
2018-09-11T09:47:52.995Z,9.80
2018-09-11T09:48:52.979Z,11.70
2018-09-11T09:49:52.963Z,7.90
2018-09-11T09:50:52.979Z,6.30
2018-09-11T09:51:52.930Z,11.70
2018-09-11T09:52:52.917Z,7.70
2018-09-11T09:53:52.907Z,8.00
2018-09-11T09:54:52.883Z,8.00
2018-09-11T09:55:52.866Z,11.10
2018-09-11T09:56:52.852Z,10.50
2018-09-11T09:57:52.839Z,7.30
2018-09-11T09:58:52.819Z,8.60
2018-09-11T09:59:52.803Z,7.80
2018-09-11T10:00:52.786Z,6.70
2018-09-11T10:01:52.772Z,7.00
2018-09-11T10:02:52.756Z,6.90
2018-09-11T10:03:52.738Z,6.10
2018-09-11T10:04:52.771Z,8.80
2018-09-11T10:05:52.706Z,6.60
2018-09-11T10:06:52.691Z,7.40
2018-09-11T10:07:52.674Z,8.50
2018-09-11T10:08:52.658Z,6.30
2018-09-11T10:09:52.644Z,7.20
2018-09-11T10:10:52.627Z,7.70
2018-09-11T10:11:52.742Z,6.70
2018-09-11T10:12:52.595Z,9.50
2018-09-11T10:13:52.587Z,7.30
2018-09-11T10:14:52.563Z,6.80
2018-09-11T10:15:54.050Z,7.60
2018-09-11T10:16:52.531Z,7.40
2018-09-11T10:17:52.516Z,6.80
2018-09-11T10:18:52.501Z,5.90
2018-09-11T10:19:52.484Z,7.70
2018-09-11T10:20:52.472Z,7.90
2018-09-11T10:21:53.954Z,7.10
2018-09-11T10:22:52.436Z,9.00
2018-09-11T10:23:52.421Z,5.80
2018-09-11T10:24:52.408Z,7.90
2018-09-11T10:25:52.390Z,7.60
2018-09-11T10:26:52.373Z,6.80
2018-09-11T10:27:54.612Z,6.50
2018-09-11T10:28:52.342Z,6.60
2018-09-11T10:29:52.326Z,6.10
2018-09-11T10:30:52.312Z,7.60
2018-09-11T10:31:52.294Z,5.90
2018-09-11T10:32:52.281Z,7.60
2018-09-11T10:33:52.400Z,7.50
2018-09-11T10:34:52.248Z,8.50
2018-09-11T10:35:52.232Z,9.50
2018-09-11T10:36:52.218Z,8.30
2018-09-11T10:37:52.204Z,6.10
2018-09-11T10:38:52.189Z,6.20
2018-09-11T10:39:52.169Z,8.10
2018-09-11T10:40:52.154Z,7.00
2018-09-11T10:41:52.139Z,10.10
2018-09-11T10:42:52.125Z,6.80
2018-09-11T10:43:52.107Z,6.80
2018-09-11T10:44:52.165Z,6.50
2018-09-11T10:45:52.078Z,9.50
2018-09-11T10:46:52.062Z,7.40
2018-09-11T10:47:52.045Z,6.00
2018-09-11T10:48:52.051Z,5.70
2018-09-11T10:49:52.018Z,9.50
2018-09-11T10:50:51.999Z,6.70
2018-09-11T10:51:52.010Z,6.00
2018-09-11T10:52:51.970Z,8.70
2018-09-11T10:53:51.954Z,6.90
2018-09-11T10:54:51.944Z,6.50
2018-09-11T10:55:51.922Z,5.60
2018-09-11T10:56:51.915Z,11.40
2018-09-11T10:57:51.892Z,8.10
2018-09-11T10:58:51.876Z,9.30
2018-09-11T10:59:51.861Z,7.80
2018-09-11T11:00:51.846Z,8.70
2018-09-11T11:01:51.831Z,7.10
2018-09-11T11:02:51.816Z,7.60
2018-09-11T11:03:51.802Z,7.90
2018-09-11T11:04:51.785Z,8.00
2018-09-11T11:05:51.771Z,5.80
2018-09-11T11:06:51.755Z,6.20
2018-09-11T11:07:51.740Z,6.30
2018-09-11T11:08:51.724Z,7.90
2018-09-11T11:09:51.709Z,7.80
2018-09-11T11:10:51.695Z,8.70
2018-09-11T11:11:51.682Z,8.30
2018-09-11T11:12:51.667Z,6.90
2018-09-11T11:13:51.655Z,6.60
2018-09-11T11:14:51.633Z,8.50
2018-09-11T11:15:51.617Z,8.00
2018-09-11T11:16:51.665Z,8.80
2018-09-11T11:17:51.589Z,6.60
2018-09-11T11:18:51.573Z,8.20
2018-09-11T11:19:51.557Z,7.50
2018-09-11T11:20:51.544Z,7.70
2018-09-11T11:21:51.528Z,5.30
2018-09-11T11:22:51.513Z,8.00
2018-09-11T11:23:51.497Z,8.80
2018-09-11T11:24:51.482Z,7.70
2018-09-11T11:25:51.469Z,5.90
2018-09-11T11:26:51.516Z,7.70
2018-09-11T11:27:51.437Z,6.20
2018-09-11T11:28:51.422Z,6.50
2018-09-11T11:29:51.408Z,7.90
2018-09-11T11:30:51.399Z,10.70
2018-09-11T11:31:51.377Z,7.90
2018-09-11T11:32:51.363Z,5.60
2018-09-11T11:33:51.350Z,7.50
2018-09-11T11:34:51.334Z,6.20
2018-09-11T11:35:51.319Z,5.80
2018-09-11T11:36:51.468Z,5.30
2018-09-11T11:37:51.290Z,8.60
2018-09-11T11:38:51.274Z,8.10
2018-09-11T11:39:51.259Z,6.40
2018-09-11T11:40:51.244Z,7.50
2018-09-11T11:41:51.349Z,6.80
2018-09-11T11:42:51.270Z,9.40
2018-09-11T11:43:51.200Z,6.10
2018-09-11T11:44:51.187Z,7.80
2018-09-11T11:45:51.172Z,6.30
2018-09-11T11:46:51.172Z,7.20
2018-09-11T11:47:51.142Z,7.10
2018-09-11T11:48:51.128Z,6.30
2018-09-11T11:49:51.116Z,9.00
2018-09-11T11:50:51.099Z,6.40
2018-09-11T11:51:51.089Z,7.10
2018-09-11T11:52:51.069Z,9.30
2018-09-11T11:53:51.056Z,6.80
2018-09-11T11:54:51.049Z,8.40
2018-09-11T11:55:51.026Z,6.80
2018-09-11T11:56:51.011Z,6.20
2018-09-11T11:57:50.999Z,6.10
2018-09-11T11:58:50.982Z,9.00
2018-09-11T11:59:50.968Z,7.80
2018-09-11T12:00:50.954Z,7.00
2018-09-11T12:01:50.954Z,5.40
2018-09-11T12:02:50.927Z,6.70
2018-09-11T12:03:50.916Z,6.20
2018-09-11T12:04:50.897Z,7.10
2018-09-11T12:05:50.883Z,5.90
2018-09-11T12:06:50.869Z,8.00
2018-09-11T12:07:50.876Z,8.10
2018-09-11T12:08:50.839Z,7.30
2018-09-11T12:09:50.824Z,6.80
2018-09-11T12:10:50.811Z,7.70
2018-09-11T12:11:50.797Z,8.70
2018-09-11T12:12:50.782Z,5.10
2018-09-11T12:13:50.769Z,6.10
2018-09-11T12:14:50.755Z,6.70
2018-09-11T12:15:50.740Z,6.40
2018-09-11T12:16:50.775Z,6.50
2018-09-11T12:17:50.714Z,7.80
2018-09-11T12:18:50.698Z,8.30
2018-09-11T12:19:50.689Z,6.70
2018-09-11T12:20:50.670Z,5.80
2018-09-11T12:21:50.656Z,5.40
2018-09-11T12:22:50.643Z,5.70
2018-09-11T12:23:50.629Z,8.60
2018-09-11T12:24:50.615Z,6.40
2018-09-11T12:25:50.605Z,9.80
2018-09-11T12:26:50.708Z,5.90
2018-09-11T12:27:50.574Z,6.00
2018-09-11T12:28:50.561Z,6.00
2018-09-11T12:29:50.547Z,9.20
2018-09-11T12:30:50.533Z,5.10
2018-09-11T12:31:50.519Z,5.80
2018-09-11T12:32:50.505Z,5.90
2018-09-11T12:33:50.491Z,6.20
2018-09-11T12:34:50.478Z,5.10
2018-09-11T12:35:50.464Z,6.10
2018-09-11T12:36:50.451Z,6.90
2018-09-11T12:37:50.436Z,8.60
2018-09-11T12:38:50.426Z,6.50
2018-09-11T12:39:50.408Z,5.80
2018-09-11T12:40:50.397Z,5.50
2018-09-11T12:41:50.382Z,6.30
2018-09-11T12:42:50.369Z,5.80
2018-09-11T12:43:50.357Z,6.60
2018-09-11T12:44:50.342Z,8.00
2018-09-11T12:45:50.391Z,10.00
2018-09-11T12:46:50.408Z,6.10
2018-09-11T12:47:50.686Z,6.50
2018-09-11T12:48:50.424Z,7.70
2018-09-11T12:49:51.024Z,5.80
2018-09-11T12:50:50.259Z,5.50
2018-09-11T12:51:50.245Z,9.50
2018-09-11T12:52:50.234Z,7.90
2018-09-11T12:53:50.218Z,6.00
2018-09-11T12:54:50.207Z,4.60
2018-09-11T12:55:50.191Z,6.50
2018-09-11T12:56:50.178Z,7.50
2018-09-11T12:57:50.165Z,7.00
2018-09-11T12:58:50.152Z,4.90